createdAt,value
2018-05-03T00:00:03.513Z,13.73
2018-05-03T00:00:07.504Z,13.79
2018-05-03T00:00:11.611Z,13.72
2018-05-03T00:00:15.604Z,13.75
2018-05-03T00:00:19.919Z,13.71
2018-05-03T00:00:24.017Z,13.73
2018-05-03T00:00:28.228Z,13.73
2018-05-03T00:00:32.444Z,13.71
2018-05-03T00:00:36.649Z,13.73
2018-05-03T00:00:40.962Z,13.71
2018-05-03T00:00:45.272Z,13.79
2018-05-03T00:00:49.588Z,13.75
2018-05-03T00:00:53.913Z,13.71
2018-05-03T00:00:57.905Z,13.73
2018-05-03T00:01:02.226Z,13.73
2018-05-03T00:01:06.332Z,13.73
2018-05-03T00:01:10.661Z,13.79
2018-05-03T00:01:14.879Z,13.69
2018-05-03T00:01:19.104Z,13.76
2018-05-03T00:01:23.423Z,13.72
2018-05-03T00:01:27.651Z,13.76
2018-05-03T00:01:31.864Z,13.71
2018-05-03T00:01:35.967Z,13.72
2018-05-03T00:01:40.076Z,13.71
2018-05-03T00:01:44.398Z,13.79
2018-05-03T00:01:48.717Z,13.73
2018-05-03T00:01:52.928Z,13.75
2018-05-03T00:01:57.476Z,13.75
2018-05-03T00:02:02.246Z,13.71
2018-05-03T00:02:06.762Z,13.71
2018-05-03T00:02:11.099Z,13.71
2018-05-03T00:02:15.314Z,13.75
2018-05-03T00:02:19.532Z,13.72
2018-05-03T00:02:23.850Z,13.72
2018-05-03T00:02:28.059Z,13.75
2018-05-03T00:02:32.155Z,13.72
2018-05-03T00:02:36.468Z,13.75
2018-05-03T00:02:40.574Z,13.72
2018-05-03T00:02:44.673Z,13.71
2018-05-03T00:02:48.882Z,13.73
2018-05-03T00:02:52.991Z,13.71
2018-05-03T00:02:57.091Z,13.79
2018-05-03T00:03:01.296Z,13.68
2018-05-03T00:03:05.388Z,13.69
2018-05-03T00:03:09.383Z,13.73
2018-05-03T00:03:13.593Z,13.79
2018-05-03T00:03:17.798Z,13.79
2018-05-03T00:03:22.118Z,13.68
2018-05-03T00:03:26.333Z,13.75
2018-05-03T00:03:30.431Z,13.72
2018-05-03T00:03:34.531Z,13.79
2018-05-03T00:03:38.857Z,13.72
2018-05-03T00:03:43.136Z,13.79
2018-05-03T00:03:47.240Z,13.76
2018-05-03T00:03:51.447Z,13.65
2018-05-03T00:03:55.332Z,13.75
2018-05-03T00:03:59.652Z,13.71
2018-05-03T00:04:03.703Z,13.73
2018-05-03T00:04:07.913Z,13.72
2018-05-03T00:04:12.120Z,13.73
2018-05-03T00:04:16.342Z,13.79
2018-05-03T00:04:20.732Z,13.72
2018-05-03T00:04:24.837Z,13.81
2018-05-03T00:04:29.050Z,13.76
2018-05-03T00:04:33.363Z,13.73
2018-05-03T00:04:37.695Z,13.76
2018-05-03T00:04:41.914Z,13.79
2018-05-03T00:04:46.166Z,13.76
2018-05-03T00:04:50.389Z,13.73
2018-05-03T00:04:54.713Z,13.75
2018-05-03T00:04:59.027Z,13.73
2018-05-03T00:05:03.036Z,13.79
2018-05-03T00:05:07.137Z,13.71
2018-05-03T00:05:11.344Z,13.72
2018-05-03T00:05:15.449Z,13.73
2018-05-03T00:05:19.558Z,13.79
2018-05-03T00:05:23.764Z,13.8
2018-05-03T00:05:27.972Z,13.75
2018-05-03T00:05:32.073Z,13.72
2018-05-03T00:05:36.408Z,13.73
2018-05-03T00:05:40.522Z,13.73
2018-05-03T00:05:44.728Z,13.71
2018-05-03T00:05:48.937Z,13.69
2018-05-03T00:05:53.143Z,13.79
2018-05-03T00:05:57.461Z,13.73
2018-05-03T00:06:01.560Z,13.75
2018-05-03T00:06:05.703Z,13.72
2018-05-03T00:06:09.912Z,13.73
2018-05-03T00:06:14.120Z,13.65
2018-05-03T00:06:18.121Z,13.71
2018-05-03T00:06:22.329Z,13.76
2018-05-03T00:06:26.542Z,13.73
2018-05-03T00:06:30.759Z,13.71
2018-05-03T00:06:35.090Z,13.65
2018-05-03T00:06:39.081Z,13.62
2018-05-03T00:06:43.394Z,13.69
2018-05-03T00:06:47.603Z,13.71
2018-05-03T00:06:51.815Z,13.75
2018-05-03T00:06:55.918Z,13.69
2018-05-03T00:07:00.123Z,13.69
2018-05-03T00:07:04.465Z,13.73
2018-05-03T00:07:08.575Z,13.71
2018-05-03T00:07:12.783Z,13.69
2018-05-03T00:07:17.001Z,13.79
2018-05-03T00:07:21.296Z,13.69
2018-05-03T00:07:25.500Z,13.66
2018-05-03T00:07:29.604Z,13.65
2018-05-03T00:07:33.810Z,13.66
2018-05-03T00:07:38.015Z,13.66
2018-05-03T00:07:42.334Z,13.73
2018-05-03T00:07:46.603Z,13.66
2018-05-03T00:07:50.935Z,13.71
2018-05-03T00:07:55.253Z,13.79
2018-05-03T00:07:59.466Z,13.71
2018-05-03T00:08:03.462Z,13.69
2018-05-03T00:08:07.357Z,13.66
2018-05-03T00:08:11.566Z,13.69
2018-05-03T00:08:15.775Z,13.66
2018-05-03T00:08:19.982Z,13.66
2018-05-03T00:08:24.198Z,13.76
2018-05-03T00:08:28.402Z,13.71
2018-05-03T00:08:32.503Z,13.71
2018-05-03T00:08:36.602Z,13.76
2018-05-03T00:08:40.989Z,13.68
2018-05-03T00:08:45.322Z,13.73
2018-05-03T00:08:49.644Z,13.72
2018-05-03T00:08:54.013Z,13.68
2018-05-03T00:08:58.230Z,13.76
2018-05-03T00:09:02.439Z,13.68
2018-05-03T00:09:06.762Z,13.68
2018-05-03T00:09:10.963Z,13.75
2018-05-03T00:09:15.168Z,13.72
2018-05-03T00:09:19.269Z,13.63
2018-05-03T00:09:23.471Z,13.69
2018-05-03T00:09:27.685Z,13.68
2018-05-03T00:09:31.785Z,13.76
2018-05-03T00:09:36.097Z,13.65
2018-05-03T00:09:40.300Z,13.71
2018-05-03T00:09:44.512Z,13.79
2018-05-03T00:09:48.729Z,13.69
2018-05-03T00:09:52.833Z,13.69
2018-05-03T00:09:56.944Z,13.68
2018-05-03T00:10:01.187Z,13.71
2018-05-03T00:10:05.289Z,13.66
2018-05-03T00:10:09.283Z,13.66
2018-05-03T00:10:13.490Z,13.73
2018-05-03T00:10:17.710Z,13.62
2018-05-03T00:10:22.029Z,13.66
2018-05-03T00:10:26.238Z,13.71
2018-05-03T00:10:30.446Z,13.76
2018-05-03T00:10:34.835Z,13.62
2018-05-03T00:10:39.154Z,13.72
2018-05-03T00:10:43.251Z,13.59
2018-05-03T00:10:47.466Z,13.61
2018-05-03T00:10:51.787Z,13.68
2018-05-03T00:10:55.989Z,13.69
2018-05-03T00:10:59.981Z,13.65
2018-05-03T00:11:04.192Z,13.62
2018-05-03T00:11:08.296Z,13.62
2018-05-03T00:11:12.573Z,13.65
2018-05-03T00:11:16.797Z,13.63
2018-05-03T00:11:20.899Z,13.63
2018-05-03T00:11:25.220Z,13.66
2018-05-03T00:11:29.499Z,13.65
2018-05-03T00:11:33.604Z,13.61
2018-05-03T00:11:37.811Z,13.65
2018-05-03T00:11:42.136Z,13.63
2018-05-03T00:11:46.348Z,13.63
2018-05-03T00:11:50.453Z,13.61
2018-05-03T00:11:54.661Z,13.63
2018-05-03T00:11:58.842Z,13.59
2018-05-03T00:12:03.265Z,13.65
2018-05-03T00:12:07.620Z,13.61
2018-05-03T00:12:11.836Z,13.61
2018-05-03T00:12:15.940Z,13.63
2018-05-03T00:12:20.158Z,13.54
2018-05-03T00:12:24.368Z,13.59
2018-05-03T00:12:28.685Z,13.63
2018-05-03T00:12:32.681Z,13.62
2018-05-03T00:12:36.992Z,13.66
2018-05-03T00:12:41.309Z,13.63
2018-05-03T00:12:45.514Z,13.55
2018-05-03T00:12:49.621Z,13.61
2018-05-03T00:12:53.833Z,13.61
2018-05-03T00:12:58.150Z,13.66
2018-05-03T00:13:02.369Z,13.59
2018-05-03T00:13:06.582Z,13.62
2018-05-03T00:13:10.899Z,13.65
2018-05-03T00:13:15.001Z,13.63
2018-05-03T00:13:19.329Z,13.55
2018-05-03T00:13:23.440Z,13.61
2018-05-03T00:13:27.717Z,13.57
2018-05-03T00:13:31.924Z,13.66
2018-05-03T00:13:36.246Z,13.62
2018-05-03T00:13:40.580Z,13.54
2018-05-03T00:13:44.901Z,13.63
2018-05-03T00:13:49.231Z,13.57
2018-05-03T00:13:53.222Z,13.61
2018-05-03T00:13:57.555Z,13.57
2018-05-03T00:14:01.655Z,13.61
2018-05-03T00:14:05.767Z,13.61
2018-05-03T00:14:10.082Z,13.59
2018-05-03T00:14:14.300Z,13.55
2018-05-03T00:14:18.508Z,13.53
2018-05-03T00:14:22.839Z,13.59
2018-05-03T00:14:26.990Z,13.54
2018-05-03T00:14:31.196Z,13.53
2018-05-03T00:14:35.400Z,13.55
2018-05-03T00:14:39.616Z,13.55
2018-05-03T00:14:43.932Z,13.54
2018-05-03T00:14:48.261Z,13.61
2018-05-03T00:14:52.363Z,13.57
2018-05-03T00:14:56.383Z,13.54
2018-05-03T00:15:00.659Z,13.53
2018-05-03T00:15:04.658Z,13.55
2018-05-03T00:15:08.870Z,13.62
2018-05-03T00:15:13.087Z,13.59
2018-05-03T00:15:17.399Z,13.59
2018-05-03T00:15:21.727Z,13.57
2018-05-03T00:15:25.829Z,13.47
2018-05-03T00:15:30.038Z,13.59
2018-05-03T00:15:34.028Z,13.54
2018-05-03T00:15:38.242Z,13.57
2018-05-03T00:15:42.450Z,13.59
2018-05-03T00:15:46.657Z,13.47
2018-05-03T00:15:50.978Z,13.54
2018-05-03T00:15:55.298Z,13.54
2018-05-03T00:15:59.613Z,13.51
2018-05-03T00:16:03.724Z,13.5
2018-05-03T00:16:07.939Z,13.57
2018-05-03T00:16:12.272Z,13.5
2018-05-03T00:16:16.483Z,13.59
2018-05-03T00:16:20.590Z,13.51
2018-05-03T00:16:24.810Z,13.51
2018-05-03T00:16:29.018Z,13.51
2018-05-03T00:16:33.230Z,13.59
2018-05-03T00:16:37.541Z,13.44
2018-05-03T00:16:41.862Z,13.59
2018-05-03T00:16:46.080Z,13.53
2018-05-03T00:16:50.296Z,13.54
2018-05-03T00:16:54.609Z,13.47
2018-05-03T00:16:58.763Z,13.51
2018-05-03T00:17:02.887Z,13.55
2018-05-03T00:17:07.216Z,13.53
2018-05-03T00:17:11.541Z,13.51
2018-05-03T00:17:15.750Z,13.53
2018-05-03T00:17:19.855Z,13.57
2018-05-03T00:17:23.953Z,13.55
2018-05-03T00:17:28.160Z,13.54
2018-05-03T00:17:32.264Z,13.5
2018-05-03T00:17:36.475Z,13.54
2018-05-03T00:17:40.799Z,13.48
2018-05-03T00:17:44.896Z,13.51
2018-05-03T00:17:49.223Z,13.46
2018-05-03T00:17:53.426Z,13.46
2018-05-03T00:17:57.634Z,13.51
2018-05-03T00:18:01.849Z,13.55
2018-05-03T00:18:06.169Z,13.46
2018-05-03T00:18:10.409Z,13.54
2018-05-03T00:18:14.725Z,13.53
2018-05-03T00:18:19.420Z,13.43
2018-05-03T00:18:24.034Z,13.5
2018-05-03T00:18:28.684Z,13.51
2018-05-03T00:18:32.904Z,13.5
2018-05-03T00:18:37.116Z,13.53
2018-05-03T00:18:41.443Z,13.46
2018-05-03T00:18:45.647Z,13.5
2018-05-03T00:18:49.757Z,13.54
2018-05-03T00:18:53.970Z,13.48
2018-05-03T00:18:58.287Z,13.48
2018-05-03T00:19:02.292Z,13.43
2018-05-03T00:19:06.505Z,13.46
2018-05-03T00:19:10.725Z,13.48
2018-05-03T00:19:14.941Z,13.5
2018-05-03T00:19:19.162Z,13.47
2018-05-03T00:19:23.336Z,13.5
2018-05-03T00:19:27.444Z,13.48
2018-05-03T00:19:31.780Z,13.48
2018-05-03T00:19:36.095Z,13.46
2018-05-03T00:19:40.196Z,13.44
2018-05-03T00:19:44.513Z,13.48
2018-05-03T00:19:48.732Z,13.47
2018-05-03T00:19:53.049Z,13.48
2018-05-03T00:19:57.149Z,13.46
2018-05-03T00:20:01.366Z,13.47
2018-05-03T00:20:05.524Z,13.43
2018-05-03T00:20:09.840Z,13.46
2018-05-03T00:20:13.944Z,13.47
2018-05-03T00:20:18.158Z,13.46
2018-05-03T00:20:22.485Z,13.41
2018-05-03T00:20:26.696Z,13.47
2018-05-03T00:20:30.907Z,13.5
2018-05-03T00:20:35.121Z,13.43
2018-05-03T00:20:39.191Z,13.44
2018-05-03T00:20:43.184Z,13.47
2018-05-03T00:20:47.394Z,13.44
2018-05-03T00:20:51.608Z,13.44
2018-05-03T00:20:55.710Z,13.44
2018-05-03T00:21:00.032Z,13.35
2018-05-03T00:21:04.025Z,13.47
2018-05-03T00:21:07.908Z,13.44
2018-05-03T00:21:12.122Z,13.44
2018-05-03T00:21:16.218Z,13.43
2018-05-03T00:21:20.438Z,13.44
2018-05-03T00:21:24.750Z,13.47
2018-05-03T00:21:28.958Z,13.43
2018-05-03T00:21:33.168Z,13.47
2018-05-03T00:21:37.273Z,13.39
2018-05-03T00:21:41.478Z,13.41
2018-05-03T00:21:45.794Z,13.47
2018-05-03T00:21:50.010Z,13.43
2018-05-03T00:21:54.322Z,13.47
2018-05-03T00:21:58.648Z,13.43
2018-05-03T00:22:02.859Z,13.44
2018-05-03T00:22:06.960Z,13.38
2018-05-03T00:22:11.282Z,13.43
2018-05-03T00:22:15.387Z,13.47
2018-05-03T00:22:19.704Z,13.43
2018-05-03T00:22:23.808Z,13.47
2018-05-03T00:22:28.126Z,13.39
2018-05-03T00:22:32.125Z,13.41
2018-05-03T00:22:36.440Z,13.39
2018-05-03T00:22:40.762Z,13.36
2018-05-03T00:22:44.865Z,13.43
2018-05-03T00:22:49.074Z,13.44
2018-05-03T00:22:53.282Z,13.43
2018-05-03T00:22:57.291Z,13.41
2018-05-03T00:23:01.615Z,13.43
2018-05-03T00:23:05.616Z,13.41
2018-05-03T00:23:09.824Z,13.39
2018-05-03T00:23:14.030Z,13.44
2018-05-03T00:23:18.238Z,13.36
2018-05-03T00:23:22.556Z,13.5
2018-05-03T00:23:26.547Z,13.38
2018-05-03T00:23:30.643Z,13.47
2018-05-03T00:23:34.857Z,13.32
2018-05-03T00:23:39.068Z,13.44
2018-05-03T00:23:43.285Z,13.41
2018-05-03T00:23:47.606Z,13.44
2018-05-03T00:23:51.929Z,13.44
2018-05-03T00:23:56.243Z,13.41
2018-05-03T00:24:00.451Z,13.36
2018-05-03T00:24:04.612Z,13.44
2018-05-03T00:24:08.712Z,13.39
2018-05-03T00:24:13.028Z,13.38
2018-05-03T00:24:17.240Z,13.48
2018-05-03T00:24:21.360Z,13.41
2018-05-03T00:24:25.580Z,13.39
2018-05-03T00:24:29.890Z,13.47
2018-05-03T00:24:34.097Z,13.36
2018-05-03T00:24:38.200Z,13.44
2018-05-03T00:24:42.518Z,13.39
2018-05-03T00:24:46.734Z,13.43
2018-05-03T00:24:50.832Z,13.41
2018-05-03T00:24:55.117Z,13.41
2018-05-03T00:24:59.445Z,13.32
2018-05-03T00:25:03.775Z,13.41
2018-05-03T00:25:07.658Z,13.43
2018-05-03T00:25:11.983Z,13.5
2018-05-03T00:25:16.297Z,13.43
2018-05-03T00:25:20.518Z,13.38
2018-05-03T00:25:24.619Z,13.43
2018-05-03T00:25:28.833Z,13.36
2018-05-03T00:25:33.152Z,13.46
2018-05-03T00:25:37.254Z,13.41
2018-05-03T00:25:41.562Z,13.39
2018-05-03T00:25:45.884Z,13.39
2018-05-03T00:25:50.193Z,13.36
2018-05-03T00:25:54.396Z,13.43
2018-05-03T00:25:58.607Z,13.38
2018-05-03T00:26:03.025Z,13.43
2018-05-03T00:26:06.909Z,13.43
2018-05-03T00:26:11.133Z,13.28
2018-05-03T00:26:15.439Z,13.43
2018-05-03T00:26:19.561Z,13.38
2018-05-03T00:26:23.783Z,13.31
2018-05-03T00:26:27.988Z,13.38
2018-05-03T00:26:32.202Z,13.32
2018-05-03T00:26:36.518Z,13.39
2018-05-03T00:26:40.626Z,13.28
2018-05-03T00:26:44.734Z,13.39
2018-05-03T00:26:48.833Z,13.39
2018-05-03T00:26:53.042Z,13.35
2018-05-03T00:26:57.247Z,13.39
2018-05-03T00:27:01.451Z,13.35
2018-05-03T00:27:05.714Z,13.38
2018-05-03T00:27:10.037Z,13.41
2018-05-03T00:27:14.246Z,13.36
2018-05-03T00:27:18.460Z,13.35
2018-05-03T00:27:22.668Z,13.35
2018-05-03T00:27:26.988Z,13.41
2018-05-03T00:27:31.206Z,13.38
2018-05-03T00:27:35.304Z,13.36
2018-05-03T00:27:39.540Z,13.29
2018-05-03T00:27:43.859Z,13.38
2018-05-03T00:27:48.066Z,13.36
2018-05-03T00:27:52.385Z,13.32
2018-05-03T00:27:56.711Z,13.35
2018-05-03T00:28:00.924Z,13.36
2018-05-03T00:28:04.919Z,13.32
2018-05-03T00:28:09.025Z,13.39
2018-05-03T00:28:13.123Z,13.31
2018-05-03T00:28:17.431Z,13.29
2018-05-03T00:28:21.639Z,13.35
2018-05-03T00:28:25.845Z,13.31
2018-05-03T00:28:30.060Z,13.35
2018-05-03T00:28:34.265Z,13.29
2018-05-03T00:28:38.365Z,13.36
2018-05-03T00:28:42.464Z,13.35
2018-05-03T00:28:46.748Z,13.31
2018-05-03T00:28:51.067Z,13.28
2018-05-03T00:28:55.385Z,13.28
2018-05-03T00:28:59.693Z,13.35
2018-05-03T00:29:03.956Z,13.32
2018-05-03T00:29:08.173Z,13.36
2018-05-03T00:29:12.387Z,13.31
2018-05-03T00:29:16.492Z,13.28
2018-05-03T00:29:20.813Z,13.36
2018-05-03T00:29:25.091Z,13.36
2018-05-03T00:29:29.300Z,13.28
2018-05-03T00:29:33.412Z,13.31
2018-05-03T00:29:37.733Z,13.29
2018-05-03T00:29:41.834Z,13.25
2018-05-03T00:29:46.042Z,13.38
2018-05-03T00:29:50.250Z,13.25
2018-05-03T00:29:54.580Z,13.38
2018-05-03T00:29:58.787Z,13.29
2018-05-03T00:30:03.065Z,13.35
2018-05-03T00:30:07.276Z,13.29
2018-05-03T00:30:11.480Z,13.29
2018-05-03T00:30:15.796Z,13.27
2018-05-03T00:30:20.015Z,13.35
2018-05-03T00:30:24.222Z,13.35
2018-05-03T00:30:28.422Z,13.32
2018-05-03T00:30:32.520Z,13.35
2018-05-03T00:30:36.723Z,13.35
2018-05-03T00:30:40.967Z,13.24
2018-05-03T00:30:44.921Z,13.29
2018-05-03T00:30:48.924Z,13.36
2018-05-03T00:30:53.245Z,13.31
2018-05-03T00:30:57.557Z,13.28
2018-05-03T00:31:01.773Z,13.31
2018-05-03T00:31:05.921Z,13.35
2018-05-03T00:31:10.132Z,13.28
2018-05-03T00:31:14.228Z,13.32
2018-05-03T00:31:18.333Z,13.35
2018-05-03T00:31:22.443Z,13.35
2018-05-03T00:31:26.757Z,13.31
2018-05-03T00:31:30.746Z,13.32
2018-05-03T00:31:35.068Z,13.35
2018-05-03T00:31:39.282Z,13.28
2018-05-03T00:31:43.601Z,13.29
2018-05-03T00:31:47.821Z,13.25
2018-05-03T00:31:52.034Z,13.25
2018-05-03T00:31:56.245Z,13.29
2018-05-03T00:32:00.448Z,13.29
2018-05-03T00:32:04.702Z,13.22
2018-05-03T00:32:08.799Z,13.24
2018-05-03T00:32:13.006Z,13.22
2018-05-03T00:32:17.211Z,13.21
2018-05-03T00:32:21.202Z,13.28
2018-05-03T00:32:25.445Z,13.24
2018-05-03T00:32:29.769Z,13.24
2018-05-03T00:32:33.875Z,13.27
2018-05-03T00:32:38.092Z,13.28
2018-05-03T00:32:42.307Z,13.28
2018-05-03T00:32:46.310Z,13.27
2018-05-03T00:32:50.638Z,13.28
2018-05-03T00:32:54.844Z,13.24
2018-05-03T00:32:59.176Z,13.28
2018-05-03T00:33:03.386Z,13.25
2018-05-03T00:33:07.803Z,13.27
2018-05-03T00:33:12.013Z,13.25
2018-05-03T00:33:16.225Z,13.24
2018-05-03T00:33:20.331Z,13.25
2018-05-03T00:33:24.648Z,13.22
2018-05-03T00:33:28.861Z,13.25
2018-05-03T00:33:33.085Z,13.24
2018-05-03T00:33:37.296Z,13.25
2018-05-03T00:33:41.614Z,13.22
2018-05-03T00:33:45.939Z,13.25
2018-05-03T00:33:50.150Z,13.22
2018-05-03T00:33:54.370Z,13.32
2018-05-03T00:33:58.699Z,13.31
2018-05-03T00:34:03.015Z,13.22
2018-05-03T00:34:07.236Z,13.27
2018-05-03T00:34:11.554Z,13.31
2018-05-03T00:34:15.764Z,13.22
2018-05-03T00:34:20.084Z,13.21
2018-05-03T00:34:24.297Z,13.22
2018-05-03T00:34:28.320Z,13.25
2018-05-03T00:34:32.637Z,13.25
2018-05-03T00:34:36.843Z,13.25
2018-05-03T00:34:41.171Z,13.25
2018-05-03T00:34:45.487Z,13.22
2018-05-03T00:34:49.808Z,13.25
2018-05-03T00:34:54.017Z,13.24
2018-05-03T00:34:58.333Z,13.22
2018-05-03T00:35:02.686Z,13.25
2018-05-03T00:35:06.964Z,13.24
2018-05-03T00:35:11.299Z,13.24
2018-05-03T00:35:15.592Z,13.27
2018-05-03T00:35:19.796Z,13.27
2018-05-03T00:35:24.026Z,13.27
2018-05-03T00:35:28.023Z,13.27
2018-05-03T00:35:32.234Z,13.24
2018-05-03T00:35:36.556Z,13.21
2018-05-03T00:35:40.660Z,13.25
2018-05-03T00:35:44.984Z,13.21
2018-05-03T00:35:49.301Z,13.24
2018-05-03T00:35:53.618Z,13.22
2018-05-03T00:35:57.896Z,13.25
2018-05-03T00:36:02.113Z,13.28
2018-05-03T00:36:06.115Z,13.29
2018-05-03T00:36:10.324Z,13.24
2018-05-03T00:36:14.425Z,13.27
2018-05-03T00:36:18.633Z,13.25
2018-05-03T00:36:22.838Z,13.25
2018-05-03T00:36:27.045Z,13.24
2018-05-03T00:36:31.366Z,13.28
2018-05-03T00:36:35.467Z,13.27
2018-05-03T00:36:39.679Z,13.22
2018-05-03T00:36:43.882Z,13.28
2018-05-03T00:36:48.202Z,13.22
2018-05-03T00:36:52.591Z,13.24
2018-05-03T00:36:56.914Z,13.21
2018-05-03T00:37:01.125Z,13.22
2018-05-03T00:37:05.316Z,13.29
2018-05-03T00:37:09.422Z,13.24
2018-05-03T00:37:13.632Z,13.25
2018-05-03T00:37:17.842Z,13.24
2018-05-03T00:37:22.158Z,13.22
2018-05-03T00:37:26.363Z,13.21
2018-05-03T00:37:30.634Z,13.28
2018-05-03T00:37:34.844Z,13.27
2018-05-03T00:37:39.167Z,13.28
2018-05-03T00:37:43.263Z,13.28
2018-05-03T00:37:47.471Z,13.21
2018-05-03T00:37:51.794Z,13.24
2018-05-03T00:37:56.112Z,13.28
2018-05-03T00:38:00.424Z,13.27
2018-05-03T00:38:04.637Z,13.24
2018-05-03T00:38:08.948Z,13.22
2018-05-03T00:38:13.061Z,13.28
2018-05-03T00:38:17.381Z,13.27
2018-05-03T00:38:21.488Z,13.24
2018-05-03T00:38:25.818Z,13.22
2018-05-03T00:38:30.135Z,13.28
2018-05-03T00:38:34.340Z,13.25
2018-05-03T00:38:38.727Z,13.25
2018-05-03T00:38:42.945Z,13.24
2018-05-03T00:38:47.285Z,13.21
2018-05-03T00:38:51.611Z,13.24
2018-05-03T00:38:55.935Z,13.25
2018-05-03T00:39:00.257Z,13.28
2018-05-03T00:39:04.365Z,13.31
2018-05-03T00:39:08.572Z,13.25
2018-05-03T00:39:12.775Z,13.19
2018-05-03T00:39:16.995Z,13.27
2018-05-03T00:39:21.309Z,13.27
2018-05-03T00:39:25.448Z,13.27
2018-05-03T00:39:29.666Z,13.25
2018-05-03T00:39:34.010Z,13.27
2018-05-03T00:39:38.226Z,13.25
2018-05-03T00:39:42.434Z,13.27
2018-05-03T00:39:46.644Z,13.25
2018-05-03T00:39:50.739Z,13.25
2018-05-03T00:39:55.126Z,13.27
2018-05-03T00:39:59.340Z,13.24
2018-05-03T00:40:03.335Z,13.25
2018-05-03T00:40:07.630Z,13.24
2018-05-03T00:40:11.852Z,13.24
2018-05-03T00:40:16.173Z,13.24
2018-05-03T00:40:20.377Z,13.21
2018-05-03T00:40:24.582Z,13.24
2018-05-03T00:40:28.908Z,13.24
2018-05-03T00:40:33.082Z,13.17
2018-05-03T00:40:37.292Z,13.28
2018-05-03T00:40:41.496Z,13.24
2018-05-03T00:40:45.819Z,13.28
2018-05-03T00:40:49.916Z,13.22
2018-05-03T00:40:54.230Z,13.24
2018-05-03T00:40:58.540Z,13.24
2018-05-03T00:41:02.753Z,13.27
2018-05-03T00:41:06.749Z,13.28
2018-05-03T00:41:10.848Z,13.24
2018-05-03T00:41:15.168Z,13.22
2018-05-03T00:41:19.496Z,13.27
2018-05-03T00:41:23.666Z,13.19
2018-05-03T00:41:27.877Z,13.21
2018-05-03T00:41:31.976Z,13.24
2018-05-03T00:41:36.185Z,13.22
2018-05-03T00:41:40.552Z,13.21
2018-05-03T00:41:44.650Z,13.19
2018-05-03T00:41:48.965Z,13.22
2018-05-03T00:41:52.956Z,13.25
2018-05-03T00:41:57.269Z,13.28
2018-05-03T00:42:01.481Z,13.22
2018-05-03T00:42:05.693Z,13.22
2018-05-03T00:42:09.797Z,13.27
2018-05-03T00:42:14.006Z,13.21
2018-05-03T00:42:18.317Z,13.17
2018-05-03T00:42:22.422Z,13.28
2018-05-03T00:42:26.744Z,13.21
2018-05-03T00:42:30.963Z,13.25
2018-05-03T00:42:35.281Z,13.24
2018-05-03T00:42:39.381Z,13.28
2018-05-03T00:42:43.589Z,13.29
2018-05-03T00:42:47.866Z,13.28
2018-05-03T00:42:51.965Z,13.29
2018-05-03T00:42:56.275Z,13.22
2018-05-03T00:43:00.596Z,13.28
2018-05-03T00:43:04.693Z,13.27
2018-05-03T00:43:08.900Z,13.25
2018-05-03T00:43:13.118Z,13.29
2018-05-03T00:43:17.322Z,13.27
2018-05-03T00:43:21.533Z,13.32
2018-05-03T00:43:25.631Z,13.25
2018-05-03T00:43:29.729Z,13.19
2018-05-03T00:43:34.055Z,13.28
2018-05-03T00:43:38.372Z,13.24
2018-05-03T00:43:42.578Z,13.22
2018-05-03T00:43:46.892Z,13.21
2018-05-03T00:43:51.097Z,13.31
2018-05-03T00:43:55.202Z,13.22
2018-05-03T00:43:59.415Z,13.22
2018-05-03T00:44:03.516Z,13.27
2018-05-03T00:44:07.829Z,13.27
2018-05-03T00:44:11.926Z,13.21
2018-05-03T00:44:16.241Z,13.28
2018-05-03T00:44:20.447Z,13.22
2018-05-03T00:44:24.764Z,13.27
2018-05-03T00:44:28.896Z,13.22
2018-05-03T00:44:32.999Z,13.27
2018-05-03T00:44:37.110Z,13.22
2018-05-03T00:44:41.213Z,13.25
2018-05-03T00:44:45.417Z,13.27
2018-05-03T00:44:49.631Z,13.27
2018-05-03T00:44:53.848Z,13.17
2018-05-03T00:44:58.054Z,13.24
2018-05-03T00:45:02.266Z,13.28
2018-05-03T00:45:06.581Z,13.25
2018-05-03T00:45:10.900Z,13.27
2018-05-03T00:45:15.110Z,13.21
2018-05-03T00:45:19.436Z,13.25
2018-05-03T00:45:23.543Z,13.24
2018-05-03T00:45:27.636Z,13.24
2018-05-03T00:45:31.847Z,13.29
2018-05-03T00:45:36.168Z,13.22
2018-05-03T00:45:40.374Z,13.22
2018-05-03T00:45:44.706Z,13.28
2018-05-03T00:45:49.038Z,13.25
2018-05-03T00:45:53.243Z,13.22
2018-05-03T00:45:57.565Z,13.24
2018-05-03T00:46:01.564Z,13.24
2018-05-03T00:46:05.734Z,13.22
2018-05-03T00:46:09.947Z,13.24
2018-05-03T00:46:14.042Z,13.28
2018-05-03T00:46:18.251Z,13.24
2018-05-03T00:46:22.567Z,13.22
2018-05-03T00:46:26.774Z,13.27
2018-05-03T00:46:30.995Z,13.22
2018-05-03T00:46:35.203Z,13.27
2018-05-03T00:46:39.425Z,13.27
2018-05-03T00:46:43.743Z,13.21
2018-05-03T00:46:47.848Z,13.28
2018-05-03T00:46:52.056Z,13.27
2018-05-03T00:46:56.258Z,13.22
2018-05-03T00:47:00.577Z,13.22
2018-05-03T00:47:04.886Z,13.19
2018-05-03T00:47:08.889Z,13.22
2018-05-03T00:47:13.099Z,13.27
2018-05-03T00:47:17.089Z,13.22
2018-05-03T00:47:21.404Z,13.24
2018-05-03T00:47:25.506Z,13.29
2018-05-03T00:47:29.714Z,13.24
2018-05-03T00:47:33.923Z,13.21
2018-05-03T00:47:38.023Z,13.19
2018-05-03T00:47:42.334Z,13.27
2018-05-03T00:47:46.429Z,13.24
2018-05-03T00:47:50.529Z,13.24
2018-05-03T00:47:54.842Z,13.25
2018-05-03T00:47:59.171Z,13.31
2018-05-03T00:48:03.390Z,13.25
2018-05-03T00:48:07.378Z,13.31
2018-05-03T00:48:11.704Z,13.25
2018-05-03T00:48:16.023Z,13.25
2018-05-03T00:48:20.344Z,13.27
2018-05-03T00:48:24.444Z,13.31
2018-05-03T00:48:28.617Z,13.17
2018-05-03T00:48:32.718Z,13.25
2018-05-03T00:48:37.038Z,13.24
2018-05-03T00:48:41.252Z,13.25
2018-05-03T00:48:45.579Z,13.27
2018-05-03T00:48:49.786Z,13.24
2018-05-03T00:48:54.107Z,13.22
2018-05-03T00:48:58.446Z,13.19
2018-05-03T00:49:02.951Z,13.25
2018-05-03T00:49:07.272Z,13.24
2018-05-03T00:49:11.481Z,13.24
2018-05-03T00:49:15.582Z,13.31
2018-05-03T00:49:19.790Z,13.27
2018-05-03T00:49:24.015Z,13.19
2018-05-03T00:49:28.009Z,13.27
2018-05-03T00:49:32.231Z,13.29
2018-05-03T00:49:36.361Z,13.27
2018-05-03T00:49:40.585Z,13.16
2018-05-03T00:49:44.900Z,13.24
2018-05-03T00:49:49.003Z,13.28
2018-05-03T00:49:53.220Z,13.17
2018-05-03T00:49:57.434Z,13.17
2018-05-03T00:50:01.636Z,13.31
2018-05-03T00:50:05.845Z,13.24
2018-05-03T00:50:10.053Z,13.19
2018-05-03T00:50:14.276Z,13.28
2018-05-03T00:50:18.487Z,13.28
2018-05-03T00:50:22.698Z,13.27
2018-05-03T00:50:27.017Z,13.28
2018-05-03T00:50:31.224Z,13.19
2018-05-03T00:50:35.221Z,13.24
2018-05-03T00:50:39.532Z,13.19
2018-05-03T00:50:43.757Z,13.25
2018-05-03T00:50:48.079Z,13.25
2018-05-03T00:50:52.391Z,13.25
2018-05-03T00:50:56.605Z,13.19
2018-05-03T00:51:00.926Z,13.27
2018-05-03T00:51:04.917Z,13.31
2018-05-03T00:51:09.021Z,13.24
2018-05-03T00:51:13.340Z,13.29
2018-05-03T00:51:17.570Z,13.25
2018-05-03T00:51:21.789Z,13.22
2018-05-03T00:51:26.004Z,13.25
2018-05-03T00:51:30.104Z,13.24
2018-05-03T00:51:34.215Z,13.25
2018-05-03T00:51:38.529Z,13.27
2018-05-03T00:51:42.853Z,13.27
2018-05-03T00:51:47.060Z,13.13
2018-05-03T00:51:51.386Z,13.25
2018-05-03T00:51:55.704Z,13.14
2018-05-03T00:51:59.909Z,13.19
2018-05-03T00:52:04.119Z,13.24
2018-05-03T00:52:08.439Z,13.25
2018-05-03T00:52:12.428Z,13.27
2018-05-03T00:52:16.649Z,13.14
2018-05-03T00:52:20.750Z,13.27
2018-05-03T00:52:24.953Z,13.25
2018-05-03T00:52:29.263Z,13.27
2018-05-03T00:52:33.361Z,13.22
2018-05-03T00:52:37.674Z,13.22
2018-05-03T00:52:41.665Z,13.29
2018-05-03T00:52:45.990Z,13.24
2018-05-03T00:52:50.084Z,13.25
2018-05-03T00:52:54.294Z,13.31
2018-05-03T00:52:58.498Z,13.24
2018-05-03T00:53:02.745Z,13.25
2018-05-03T00:53:06.854Z,13.22
2018-05-03T00:53:11.179Z,13.24
2018-05-03T00:53:15.392Z,13.25
2018-05-03T00:53:19.494Z,13.25
2018-05-03T00:53:23.593Z,13.22
2018-05-03T00:53:27.802Z,13.24
2018-05-03T00:53:31.895Z,13.27
2018-05-03T00:53:36.012Z,13.28
2018-05-03T00:53:40.339Z,13.24
2018-05-03T00:53:44.437Z,13.16
2018-05-03T00:53:48.655Z,13.24
2018-05-03T00:53:52.969Z,13.35
2018-05-03T00:53:57.174Z,13.21
2018-05-03T00:54:01.276Z,13.25
2018-05-03T00:54:05.744Z,13.21
2018-05-03T00:54:10.061Z,13.27
2018-05-03T00:54:14.277Z,13.24
2018-05-03T00:54:18.675Z,13.22
2018-05-03T00:54:22.995Z,13.19